Time;durP1;ratioP1;P1;durP2;ratioP2;P2;SDS_P1;SDS_P2;PMS_P1;PMS_P2;Temp;Humidity;BMP_temperature;BMP_pressure;BME280_temperature;BME280_humidity;BME280_pressure;Samples;Min_cycle;Max_cycle;Signal;HPM_P1;HPM_P2
2022/04/29 00:00:41;;;;;;;6.73;3.00;;;8.70;99.90;;;;;;4928309;29;20615;-80
2022/04/29 00:03:09;;;;;;;4.53;2.80;;;8.60;99.90;;;;;;4939523;29;20659;-80
2022/04/29 00:08:08;;;;;;;5.67;2.73;;;8.60;99.90;;;;;;4901397;29;20258;-81
2022/04/29 00:10:35;;;;;;;5.27;2.87;;;8.50;99.90;;;;;;4900198;29;20226;-80
2022/04/29 00:13:02;;;;;;;6.53;3.50;;;8.30;99.90;;;;;;4915126;29;20598;-80
2022/04/29 00:15:28;;;;;;;4.53;2.73;;;8.30;99.90;;;;;;4918996;29;20178;-79
2022/04/29 00:17:55;;;;;;;10.40;3.80;;;8.30;99.90;;;;;;4918791;29;20375;-80
2022/04/29 00:20:21;;;;;;;5.87;2.70;;;8.30;99.90;;;;;;4903168;29;20187;-79
2022/04/29 00:22:46;;;;;;;12.27;3.43;;;8.30;99.90;;;;;;4901282;29;20187;-80
2022/04/29 00:25:12;;;;;;;7.47;3.57;;;8.30;99.90;;;;;;4904390;29;20229;-81
2022/04/29 00:27:40;;;;;;;7.43;3.17;;;8.10;99.90;;;;;;4920205;29;20178;-81
2022/04/29 00:30:08;;;;;;;5.90;3.10;;;8.10;99.90;;;;;;4916986;29;20646;-79
2022/04/29 00:32:33;;;;;;;6.37;2.90;;;8.10;99.90;;;;;;4899194;29;20187;-82
2022/04/29 00:34:59;;;;;;;10.80;3.83;;;8.10;99.90;;;;;;4899980;29;20278;-78
2022/04/29 00:37:25;;;;;;;12.57;3.20;;;8.10;99.90;;;;;;4899740;29;20179;-88
2022/04/29 00:39:51;;;;;;;5.77;3.03;;;8.10;99.90;;;;;;4901681;29;20183;-87
2022/04/29 00:42:21;;;;;;;6.10;2.93;;;8.00;99.90;;;;;;4901606;29;20186;-88
2022/04/29 00:44:47;;;;;;;7.00;3.27;;;7.90;99.90;;;;;;4900313;29;20603;-88
2022/04/29 00:47:15;;;;;;;6.80;2.83;;;8.00;99.90;;;;;;4900901;29;20195;-89
2022/04/29 00:49:42;;;;;;;7.67;3.33;;;8.00;99.90;;;;;;4901251;29;20207;-83
2022/04/29 00:52:18;;;;;;;7.67;3.37;;;7.90;99.90;;;;;;4901345;29;20175;-87
2022/04/29 00:54:52;;;;;;;6.53;3.00;;;7.80;99.90;;;;;;4901792;29;20175;-88
2022/04/29 00:57:58;;;;;;;5.33;3.07;;;7.80;99.90;;;;;;4901501;29;20223;-89
2022/04/29 01:00:23;;;;;;;7.23;3.07;;;7.70;99.90;;;;;;4900790;29;20282;-88
2022/04/29 01:02:52;;;;;;;6.37;3.17;;;7.90;99.90;;;;;;4901774;29;20218;-89
2022/04/29 01:05:21;;;;;;;6.63;3.13;;;7.90;99.90;;;;;;4909539;29;20219;-88
2022/04/29 01:07:47;;;;;;;3.73;2.83;;;7.90;99.90;;;;;;4900935;29;20313;-87
2022/04/29 01:10:15;;;;;;;6.70;3.03;;;7.80;99.90;;;;;;4900678;29;20301;-80
2022/04/29 01:12:44;;;;;;;5.53;2.83;;;7.80;99.90;;;;;;4900286;29;20172;-80
2022/04/29 01:15:13;;;;;;;7.27;3.30;;;7.80;99.90;;;;;;4899158;29;20273;-81
2022/04/29 01:17:40;;;;;;;6.97;2.90;;;7.70;99.90;;;;;;4900413;29;20179;-81
2022/04/29 01:20:09;;;;;;;9.23;3.10;;;7.60;99.90;;;;;;4900589;29;20199;-79
2022/04/29 01:22:35;;;;;;;4.73;2.90;;;7.50;99.90;;;;;;4900372;29;20179;-79
2022/04/29 01:25:02;;;;;;;11.03;2.70;;;7.50;99.90;;;;;;4902320;29;20500;-78
2022/04/29 01:27:28;;;;;;;6.30;2.73;;;7.40;99.90;;;;;;4918011;29;20622;-79
2022/04/29 01:30:17;;;;;;;5.40;2.57;;;7.30;99.90;;;;;;4917337;29;20249;-80
2022/04/29 01:32:44;;;;;;;5.23;2.60;;;7.40;99.90;;;;;;4916671;29;20630;-78
2022/04/29 01:35:11;;;;;;;3.90;2.33;;;7.40;99.90;;;;;;4917927;29;20190;-80
2022/04/29 01:37:37;;;;;;;8.63;2.67;;;7.40;99.90;;;;;;4918889;29;20618;-80
2022/04/29 01:40:05;;;;;;;5.27;2.60;;;7.40;99.90;;;;;;4918937;29;20373;-80
2022/04/29 01:42:30;;;;;;;8.73;2.50;;;7.30;99.90;;;;;;4918739;29;20181;-80
2022/04/29 01:44:56;;;;;;;6.20;2.33;;;7.40;99.90;;;;;;4918710;29;20175;-79
2022/04/29 01:47:22;;;;;;;4.43;2.43;;;7.40;99.90;;;;;;4918726;29;20179;-81
2022/04/29 01:49:48;;;;;;;5.67;2.27;;;7.30;99.90;;;;;;4918555;29;20212;-82
2022/04/29 01:52:14;;;;;;;8.20;2.70;;;7.20;99.90;;;;;;4918547;29;20175;-81
2022/04/29 01:54:40;;;;;;;6.27;2.60;;;7.20;99.90;;;;;;4917274;29;20183;-79
2022/04/29 01:57:07;;;;;;;10.67;2.53;;;7.20;99.90;;;;;;4918615;29;20213;-80
2022/04/29 01:59:32;;;;;;;7.20;2.20;;;7.20;99.90;;;;;;4918469;29;20182;-80
2022/04/29 02:01:59;;;;;;;5.57;2.40;;;7.20;99.90;;;;;;4917193;29;20250;-83
2022/04/29 02:04:25;;;;;;;10.17;2.40;;;7.20;99.90;;;;;;4915516;29;20190;-79
2022/04/29 02:06:51;;;;;;;16.10;2.67;;;7.10;99.90;;;;;;4899486;29;20662;-80
2022/04/29 02:09:16;;;;;;;9.67;2.50;;;7.10;99.90;;;;;;4899107;29;20213;-79
2022/04/29 02:12:04;;;;;;;5.23;2.40;;;7.10;99.90;;;;;;4899579;29;20187;-79
2022/04/29 02:14:30;;;;;;;5.80;2.70;;;7.10;99.90;;;;;;4898391;29;20191;-79
2022/04/29 02:16:57;;;;;;;5.53;2.30;;;7.00;99.90;;;;;;4898275;29;20191;-79
2022/04/29 02:19:24;;;;;;;9.80;2.90;;;7.00;99.90;;;;;;4899432;29;20179;-79
2022/04/29 02:21:51;;;;;;;7.30;2.33;;;7.00;99.90;;;;;;4898907;29;20222;-79
2022/04/29 02:24:16;;;;;;;7.87;2.50;;;7.10;99.90;;;;;;4899153;29;20183;-79
2022/04/29 02:26:42;;;;;;;7.53;2.30;;;7.10;99.90;;;;;;4913958;29;20637;-79
2022/04/29 02:29:08;;;;;;;5.03;2.20;;;7.10;99.90;;;;;;4932326;29;20210;-80
2022/04/29 02:31:34;;;;;;;6.57;2.07;;;7.10;99.90;;;;;;4917997;29;20171;-80
2022/04/29 02:33:59;;;;;;;6.50;2.60;;;7.00;99.90;;;;;;4918072;29;20194;-80
2022/04/29 02:36:25;;;;;;;8.83;2.40;;;7.00;99.90;;;;;;4918012;29;20274;-79
2022/04/29 02:38:51;;;;;;;8.10;2.17;;;7.00;99.90;;;;;;4932670;29;20605;-79
2022/04/29 02:41:17;;;;;;;8.43;2.33;;;7.10;99.90;;;;;;4918098;29;20189;-80
2022/04/29 02:43:43;;;;;;;7.93;2.50;;;7.00;99.90;;;;;;4917822;29;20198;-80
2022/04/29 02:46:09;;;;;;;5.37;2.10;;;6.90;99.90;;;;;;4918093;29;20644;-81
2022/04/29 02:48:34;;;;;;;7.30;2.33;;;7.00;99.90;;;;;;4898504;29;20188;-80
2022/04/29 02:51:01;;;;;;;5.93;2.53;;;6.90;99.90;;;;;;4897642;29;20562;-80
2022/04/29 02:53:27;;;;;;;5.27;2.10;;;6.80;99.90;;;;;;4898924;29;20160;-80
2022/04/29 02:55:53;;;;;;;6.27;2.37;;;6.90;99.90;;;;;;4899094;29;20179;-81
2022/04/29 02:58:19;;;;;;;8.27;2.53;;;6.90;99.90;;;;;;4898763;29;20402;-81
2022/04/29 03:00:44;;;;;;;8.83;2.63;;;6.90;99.90;;;;;;4897794;29;20239;-82
2022/04/29 03:03:10;;;;;;;10.13;3.17;;;6.90;99.90;;;;;;4897946;29;20268;-84
2022/04/29 03:05:36;;;;;;;12.67;2.63;;;6.90;99.90;;;;;;4899047;29;20183;-80
2022/04/29 03:08:01;;;;;;;5.77;2.37;;;6.90;99.90;;;;;;4897656;29;20322;-80
2022/04/29 03:10:27;;;;;;;10.00;2.50;;;6.80;99.90;;;;;;4898569;29;20223;-80
2022/04/29 03:12:53;;;;;;;10.10;2.73;;;6.90;99.90;;;;;;4912460;29;20194;-80
2022/04/29 03:15:19;;;;;;;8.27;2.90;;;6.80;99.90;;;;;;4917686;29;20186;-80
2022/04/29 03:20:37;;;;;;;6.77;3.07;;;6.60;99.90;;;;;;4917867;29;20178;-80
2022/04/29 03:23:04;;;;;;;10.77;2.93;;;6.50;99.90;;;;;;4917721;29;20263;-80
2022/04/29 03:25:29;;;;;;;10.80;2.90;;;6.50;99.90;;;;;;4918032;29;20190;-83
2022/04/29 03:27:55;;;;;;;7.40;2.83;;;6.40;99.90;;;;;;4921291;29;20182;-80
2022/04/29 03:30:20;;;;;;;7.13;2.80;;;6.30;99.90;;;;;;4920939;29;20676;-80
2022/04/29 03:32:54;;;;;;;7.97;2.70;;;6.30;99.90;;;;;;4905020;29;20230;-80
2022/04/29 03:35:21;;;;;;;5.30;2.50;;;6.30;99.90;;;;;;4901115;29;20278;-80
2022/04/29 03:37:51;;;;;;;11.30;2.57;;;6.40;99.90;;;;;;4902033;29;20178;-79
2022/04/29 03:40:21;;;;;;;9.13;2.60;;;6.40;99.90;;;;;;4900947;29;20187;-80
2022/04/29 03:42:57;;;;;;;6.70;2.43;;;6.40;99.90;;;;;;4901991;29;20171;-80
2022/04/29 03:45:25;;;;;;;6.23;2.70;;;6.50;99.90;;;;;;4901890;29;20163;-80
2022/04/29 03:47:51;;;;;;;10.87;2.63;;;6.40;99.90;;;;;;4901912;29;20179;-79
2022/04/29 03:50:17;;;;;;;7.93;2.63;;;6.50;99.90;;;;;;4902001;29;20219;-79
2022/04/29 03:52:47;;;;;;;6.23;2.27;;;6.50;99.90;;;;;;4901441;29;20488;-79
2022/04/29 03:55:22;;;;;;;6.97;2.40;;;6.50;99.90;;;;;;4905081;29;20246;-80
2022/04/29 03:57:47;;;;;;;7.67;2.33;;;6.50;99.90;;;;;;4935473;29;20257;-80
2022/04/29 04:00:14;;;;;;;6.97;2.03;;;6.40;99.90;;;;;;4920490;29;20182;-80
2022/04/29 04:02:40;;;;;;;8.53;2.50;;;6.50;99.90;;;;;;4919321;29;20569;-81
2022/04/29 04:05:08;;;;;;;5.13;2.43;;;6.60;99.90;;;;;;4920363;29;20317;-86
2022/04/29 04:07:34;;;;;;;7.50;2.20;;;6.60;99.90;;;;;;4920451;29;20266;-85
2022/04/29 04:10:00;;;;;;;6.37;1.90;;;6.60;99.90;;;;;;4920478;29;20214;-85
2022/04/29 04:12:25;;;;;;;6.37;2.73;;;6.60;99.90;;;;;;4919957;29;20198;-87
2022/04/29 04:14:51;;;;;;;8.07;2.80;;;6.60;99.90;;;;;;4920659;29;20183;-87
2022/04/29 04:17:17;;;;;;;8.33;2.67;;;6.60;99.90;;;;;;4919797;29;20201;-86
2022/04/29 04:19:43;;;;;;;5.43;2.27;;;6.60;99.90;;;;;;4919486;29;20183;-88
2022/04/29 04:22:09;;;;;;;5.83;2.20;;;6.50;99.90;;;;;;4920582;29;20190;-88
2022/04/29 04:24:34;;;;;;;7.17;2.60;;;6.50;99.90;;;;;;4920731;29;20171;-82
2022/04/29 04:27:00;;;;;;;8.43;2.63;;;6.50;99.90;;;;;;4920547;29;20253;-80
2022/04/29 04:29:26;;;;;;;6.93;2.77;;;6.50;99.90;;;;;;4920326;29;20226;-82
2022/04/29 04:31:53;;;;;;;7.10;2.47;;;6.50;99.90;;;;;;4911649;29;20195;-89
2022/04/29 04:37:03;;;;;;;7.07;2.27;;;6.60;99.90;;;;;;4901697;29;20510;-84
2022/04/29 04:39:29;;;;;;;7.13;2.90;;;6.50;99.90;;;;;;4901538;29;20203;-87
2022/04/29 04:41:55;;;;;;;4.80;2.67;;;6.50;99.90;;;;;;4901560;29;20226;-89
2022/04/29 04:44:21;;;;;;;6.30;2.37;;;6.40;99.90;;;;;;4900013;29;20187;-85
2022/04/29 04:46:47;;;;;;;11.67;2.93;;;6.60;99.90;;;;;;4899788;29;20183;-81
2022/04/29 04:49:13;;;;;;;8.87;2.90;;;6.70;99.90;;;;;;4900302;29;20226;-82
2022/04/29 04:51:39;;;;;;;8.37;2.53;;;6.80;99.90;;;;;;4900502;29;20266;-80
2022/04/29 04:54:05;;;;;;;8.03;2.80;;;6.70;99.90;;;;;;4900967;29;20183;-80
2022/04/29 04:56:32;;;;;;;7.97;2.60;;;6.70;99.90;;;;;;4914039;29;20194;-80
2022/04/29 04:58:58;;;;;;;6.90;2.67;;;6.70;99.90;;;;;;4918653;29;20182;-82
2022/04/29 05:01:23;;;;;;;6.30;2.60;;;6.60;99.90;;;;;;4919106;29;20171;-82
2022/04/29 05:03:49;;;;;;;8.47;3.03;;;6.60;99.90;;;;;;4919545;29;20349;-79
2022/04/29 05:06:15;;;;;;;10.50;3.30;;;6.70;99.90;;;;;;4919091;29;20305;-83
2022/04/29 05:08:40;;;;;;;10.97;3.57;;;6.70;99.90;;;;;;4919271;29;20254;-80
2022/04/29 05:11:06;;;;;;;8.33;3.00;;;6.70;99.90;;;;;;4919414;29;20213;-80
2022/04/29 05:13:31;;;;;;;7.67;2.50;;;6.70;99.90;;;;;;4913291;29;20576;-79
2022/04/29 05:15:57;;;;;;;6.83;2.80;;;6.60;99.90;;;;;;4901882;29;20171;-80
2022/04/29 05:18:23;;;;;;;6.70;2.80;;;6.70;99.90;;;;;;4900167;29;20198;-87
2022/04/29 05:20:49;;;;;;;9.50;2.80;;;6.70;99.90;;;;;;4899960;29;20670;-82
2022/04/29 05:23:15;;;;;;;8.23;2.90;;;6.80;99.90;;;;;;4916350;29;20190;-82
2022/04/29 05:25:41;;;;;;;7.33;2.73;;;6.80;99.90;;;;;;4911165;29;20246;-83
2022/04/29 05:28:07;;;;;;;7.67;2.90;;;6.80;99.90;;;;;;4902278;29;20237;-90
2022/04/29 05:30:33;;;;;;;9.80;2.80;;;6.90;99.90;;;;;;4914657;29;20207;-91
2022/04/29 05:32:59;;;;;;;8.77;3.53;;;7.00;99.90;;;;;;4914974;29;20178;-89
2022/04/29 05:35:24;;;;;;;8.00;3.43;;;7.00;99.90;;;;;;4919097;29;20213;-85
2022/04/29 05:37:51;;;;;;;10.40;3.47;;;7.00;99.90;;;;;;4918984;29;20189;-81
2022/04/29 05:43:02;;;;;;;9.17;3.07;;;7.30;99.90;;;;;;4919091;29;20178;-81
2022/04/29 05:45:28;;;;;;;7.63;3.27;;;7.40;99.90;;;;;;4905146;29;20191;-83
2022/04/29 05:47:54;;;;;;;7.27;3.23;;;7.50;99.90;;;;;;4898282;29;20235;-80
2022/04/29 05:50:19;;;;;;;6.47;3.40;;;7.60;99.90;;;;;;4900145;29;20563;-80
2022/04/29 05:52:45;;;;;;;10.40;3.57;;;7.80;99.90;;;;;;4900288;29;20178;-80
2022/04/29 05:55:12;;;;;;;8.70;4.03;;;7.90;99.90;;;;;;4902902;29;20221;-87
2022/04/29 05:57:38;;;;;;;9.63;3.93;;;8.00;99.90;;;;;;4911820;29;20182;-84
2022/04/29 06:00:04;;;;;;;9.47;3.40;;;8.00;99.90;;;;;;4911967;29;20285;-87
2022/04/29 06:05:06;;;;;;;7.57;3.67;;;8.00;99.90;;;;;;5750273;23;20256;-77
2022/04/29 06:07:32;;;;;;;12.67;3.90;;;8.00;99.90;;;;;;4918968;29;20212;-77
2022/04/29 06:09:57;;;;;;;8.50;3.87;;;8.00;99.90;;;;;;4917999;29;20538;-77
2022/04/29 06:12:23;;;;;;;13.60;4.63;;;8.00;99.90;;;;;;4917982;29;20178;-78
2022/04/29 06:14:49;;;;;;;13.50;4.27;;;7.90;99.90;;;;;;4916504;29;20708;-78
2022/04/29 06:17:15;;;;;;;13.50;4.27;;;7.80;99.90;;;;;;4918017;29;20504;-78
2022/04/29 06:19:41;;;;;;;10.13;4.10;;;7.90;99.90;;;;;;4922047;29;20178;-78
2022/04/29 06:22:06;;;;;;;11.87;4.47;;;7.90;99.90;;;;;;4926639;29;20193;-78
2022/04/29 06:24:33;;;;;;;10.07;4.47;;;8.10;99.90;;;;;;4916537;29;20229;-79
2022/04/29 06:26:58;;;;;;;10.77;3.90;;;8.10;99.90;;;;;;4935078;29;20633;-78
2022/04/29 06:29:25;;;;;;;14.50;4.70;;;8.20;99.90;;;;;;4935271;29;20244;-78
2022/04/29 06:31:50;;;;;;;12.20;4.93;;;8.40;99.90;;;;;;4936852;29;20672;-78
2022/04/29 06:34:16;;;;;;;12.27;4.80;;;8.50;99.90;;;;;;4936701;29;20229;-77
2022/04/29 06:36:42;;;;;;;13.67;5.77;;;8.60;99.90;;;;;;4936468;29;20173;-78
2022/04/29 06:39:08;;;;;;;11.27;5.63;;;8.60;99.90;;;;;;4935730;29;20313;-78
2022/04/29 06:41:37;;;;;;;11.93;5.93;;;8.50;99.90;;;;;;4936871;29;20264;-78
2022/04/29 06:44:03;;;;;;;21.77;6.40;;;8.50;99.90;;;;;;4936615;29;20189;-79
2022/04/29 06:46:30;;;;;;;10.60;6.07;;;8.50;99.90;;;;;;4930976;29;20182;-78
2022/04/29 06:48:55;;;;;;;11.40;5.17;;;8.50;99.90;;;;;;4929080;29;20186;-79
2022/04/29 06:51:22;;;;;;;12.40;5.93;;;8.50;99.90;;;;;;4935465;29;20181;-79
2022/04/29 06:53:48;;;;;;;14.13;5.77;;;8.60;99.90;;;;;;4936663;29;20515;-79
2022/04/29 06:56:14;;;;;;;12.17;5.60;;;8.60;99.90;;;;;;4936720;29;20276;-78
2022/04/29 06:58:39;;;;;;;12.87;5.57;;;8.60;99.90;;;;;;4936053;29;20256;-78
2022/04/29 07:01:06;;;;;;;15.80;6.17;;;8.60;99.90;;;;;;4939197;29;20269;-79
2022/04/29 07:03:31;;;;;;;19.00;6.47;;;8.60;99.90;;;;;;4940311;29;20181;-78
2022/04/29 07:06:00;;;;;;;17.77;6.23;;;8.70;99.90;;;;;;4939616;29;20222;-79
2022/04/29 07:08:25;;;;;;;11.53;5.97;;;8.80;99.90;;;;;;4940251;29;20201;-78
2022/04/29 07:10:51;;;;;;;14.57;5.77;;;8.80;99.90;;;;;;4940522;29;20237;-78
2022/04/29 07:13:17;;;;;;;13.73;5.97;;;8.90;99.90;;;;;;4940313;29;20178;-78
2022/04/29 07:15:44;;;;;;;11.93;5.83;;;8.90;99.90;;;;;;4940215;29;20197;-78
2022/04/29 07:18:11;;;;;;;11.53;6.33;;;9.10;99.90;;;;;;4940240;29;20231;-78
2022/04/29 07:20:36;;;;;;;11.87;5.83;;;9.20;99.90;;;;;;4934366;29;20617;-78
2022/04/29 07:23:02;;;;;;;12.27;5.97;;;9.40;99.90;;;;;;4928671;29;20182;-78
2022/04/29 07:25:28;;;;;;;12.53;5.80;;;9.60;99.90;;;;;;4931313;29;20220;-78
2022/04/29 07:27:54;;;;;;;10.07;5.50;;;9.80;99.90;;;;;;4921854;29;20183;-78
2022/04/29 07:30:19;;;;;;;18.97;5.63;;;9.90;99.90;;;;;;4920675;29;20207;-78
2022/04/29 07:32:45;;;;;;;13.03;4.83;;;10.10;99.90;;;;;;4920587;29;20369;-78
2022/04/29 07:43:24;;;;;;;15.70;5.47;;;10.90;99.90;;;;;;4940247;29;20243;-78
2022/04/29 07:45:51;;;;;;;12.17;5.33;;;10.90;99.90;;;;;;4939533;29;20189;-78
2022/04/29 07:48:18;;;;;;;12.90;5.13;;;10.90;99.90;;;;;;4939307;29;20190;-80
2022/04/29 07:50:43;;;;;;;11.90;5.15;;;10.90;99.90;;;;;;4939232;29;20214;-79
2022/04/29 07:53:09;;;;;;;12.65;5.47;;;11.10;99.90;;;;;;4923467;29;20191;-80
2022/04/29 07:55:35;;;;;;;11.02;5.20;;;11.20;99.90;;;;;;4926742;29;20245;-79
2022/04/29 07:58:03;;;;;;;15.18;5.53;;;11.40;99.90;;;;;;4932055;29;20605;-79
2022/04/29 08:00:33;;;;;;;9.63;5.15;;;11.60;99.90;;;;;;4933680;29;20197;-79
2022/04/29 08:03:02;;;;;;;12.70;5.25;;;11.60;99.90;;;;;;4939581;29;20177;-80
2022/04/29 08:05:30;;;;;;;11.40;5.53;;;11.70;99.90;;;;;;4937587;29;20229;-78
2022/04/29 08:07:59;;;;;;;13.88;5.35;;;11.80;99.90;;;;;;4927217;29;20179;-80
2022/04/29 08:10:32;;;;;;;13.43;5.57;;;11.90;99.90;;;;;;4920283;29;20210;-79
2022/04/29 08:13:02;;;;;;;12.57;5.70;;;11.90;99.90;;;;;;4933759;29;20240;-79
2022/04/29 08:15:29;;;;;;;10.48;5.70;;;12.00;99.90;;;;;;4939283;29;20657;-80
2022/04/29 08:17:55;;;;;;;10.85;5.47;;;12.10;99.90;;;;;;4939227;29;20617;-79
2022/04/29 08:20:21;;;;;;;8.35;4.78;;;12.10;99.90;;;;;;4939244;29;20185;-79
2022/04/29 08:22:47;;;;;;;13.07;5.60;;;12.10;99.90;;;;;;4939205;29;20733;-79
2022/04/29 08:25:16;;;;;;;14.38;5.50;;;12.20;99.90;;;;;;4939731;29;20190;-79
2022/04/29 08:27:42;;;;;;;11.98;5.35;;;12.30;99.90;;;;;;4939143;29;20207;-80
2022/04/29 08:30:08;;;;;;;9.57;5.30;;;12.50;99.90;;;;;;4938760;29;20237;-80
2022/04/29 08:32:42;;;;;;;6.90;4.85;;;12.50;99.90;;;;;;4939092;29;20266;-81
2022/04/29 08:35:12;;;;;;;13.05;5.40;;;12.70;99.90;;;;;;4937190;29;20189;-81
2022/04/29 08:37:42;;;;;;;13.00;5.75;;;12.80;99.90;;;;;;4937873;29;20237;-80
2022/04/29 08:40:09;;;;;;;11.48;4.95;;;13.00;99.90;;;;;;4933618;29;20175;-80
2022/04/29 08:42:37;;;;;;;9.13;4.72;;;13.20;99.90;;;;;;4919737;29;20171;-80
2022/04/29 08:45:12;;;;;;;12.20;5.07;;;13.30;99.90;;;;;;4919735;29;20171;-81
2022/04/29 08:47:40;;;;;;;11.52;5.50;;;13.40;99.90;;;;;;4924649;29;20268;-80
2022/04/29 08:50:08;;;;;;;7.55;4.75;;;13.60;99.90;;;;;;4938145;29;20213;-80
2022/04/29 08:52:35;;;;;;;14.52;5.38;;;13.80;99.90;;;;;;4938261;29;20170;-81
2022/04/29 09:00:38;;;;;;;12.85;5.40;;;14.10;99.90;;;;;;4938690;29;20181;-79
2022/04/29 09:03:06;;;;;;;12.00;4.85;;;14.20;99.90;;;;;;4937058;29;20511;-80
2022/04/29 09:05:32;;;;;;;13.82;5.50;;;14.20;99.90;;;;;;4935633;29;20225;-80
2022/04/29 09:08:02;;;;;;;16.40;5.18;;;14.30;99.90;;;;;;4925825;29;20189;-81
2022/04/29 09:10:36;;;;;;;7.75;4.85;;;14.30;99.90;;;;;;4929768;29;20626;-80
2022/04/29 09:13:12;;;;;;;12.57;5.07;;;14.30;99.90;;;;;;4936566;29;20178;-81
2022/04/29 09:15:45;;;;;;;12.45;5.28;;;14.40;99.90;;;;;;4929800;29;20190;-80
2022/04/29 09:18:11;;;;;;;15.05;5.38;;;14.40;99.90;;;;;;4917713;29;20197;-79
2022/04/29 09:20:39;;;;;;;14.50;5.93;;;14.40;99.90;;;;;;4919132;29;20171;-80
2022/04/29 09:23:04;;;;;;;15.10;5.70;;;14.50;99.90;;;;;;4918348;29;20270;-81
2022/04/29 09:25:39;;;;;;;11.45;4.88;;;14.70;99.90;;;;;;4923014;29;20269;-81
2022/04/29 09:28:05;;;;;;;11.63;5.20;;;14.90;99.90;;;;;;4928611;29;20838;-83
2022/04/29 09:30:39;;;;;;;10.50;5.18;;;15.10;99.90;;;;;;4933641;29;20221;-85
2022/04/29 09:33:18;;;;;;;10.75;4.95;;;15.20;99.90;;;;;;4936158;29;20174;-81
2022/04/29 09:35:44;;;;;;;11.15;4.85;;;15.20;99.90;;;;;;4937419;29;20189;-81
2022/04/29 09:40:56;;;;;;;10.20;5.05;;;15.40;99.80;;;;;;4937212;29;20180;-82
2022/04/29 09:43:35;;;;;;;13.25;5.47;;;15.50;98.90;;;;;;4936217;29;20190;-82
2022/04/29 09:46:18;;;;;;;10.15;5.18;;;15.50;98.70;;;;;;4933092;29;20178;-83
2022/04/29 09:48:52;;;;;;;10.98;5.45;;;15.30;99.90;;;;;;4935660;29;20190;-81
2022/04/29 09:51:47;;;;;;;12.20;5.53;;;15.50;99.90;;;;;;4937636;29;20206;-82
2022/04/29 09:54:26;;;;;;;10.18;5.10;;;15.70;99.30;;;;;;4937228;29;20264;-83
2022/04/29 09:57:08;;;;;;;16.77;5.32;;;15.70;99.90;;;;;;4936076;29;20197;-83
2022/04/29 09:59:39;;;;;;;13.07;4.82;;;15.90;99.90;;;;;;4916908;29;20188;-82
2022/04/29 10:02:07;;;;;;;13.40;5.07;;;16.00;99.00;;;;;;4916339;29;20174;-83
2022/04/29 10:04:35;;;;;;;11.02;4.75;;;16.20;98.80;;;;;;4918021;29;20182;-81
2022/04/29 10:07:04;;;;;;;10.73;4.63;;;16.40;97.90;;;;;;4917010;29;20668;-80
2022/04/29 10:09:33;;;;;;;12.45;4.95;;;16.50;98.70;;;;;;4916819;29;20230;-81
2022/04/29 10:12:02;;;;;;;9.02;4.45;;;16.60;97.30;;;;;;4918163;29;20613;-83
2022/04/29 10:14:29;;;;;;;10.70;4.53;;;16.70;98.20;;;;;;4928598;29;20181;-83
2022/04/29 10:23:02;;;;;;;9.60;4.47;;;17.20;97.80;;;;;;4936498;29;20236;-81
2022/04/29 10:25:28;;;;;;;9.13;4.43;;;17.50;98.10;;;;;;4931991;29;20179;-80
2022/04/29 10:27:55;;;;;;;8.23;4.20;;;17.60;95.90;;;;;;4918436;29;20182;-82
2022/04/29 10:30:38;;;;;;;11.93;4.80;;;17.60;94.70;;;;;;4918155;29;20210;-83
2022/04/29 10:33:09;;;;;;;9.30;3.97;;;17.80;95.40;;;;;;4924636;29;20174;-80
2022/04/29 10:35:42;;;;;;;14.85;4.57;;;17.70;96.20;;;;;;4928414;29;20181;-81
2022/04/29 10:38:31;;;;;;;9.07;4.35;;;17.80;95.40;;;;;;4926581;29;20174;-80
2022/04/29 10:41:14;;;;;;;12.05;4.55;;;17.80;95.40;;;;;;4926561;29;20200;-83
2022/04/29 10:43:53;;;;;;;7.97;3.28;;;18.00;94.10;;;;;;4926562;29;20521;-80
2022/04/29 10:46:32;;;;;;;7.88;3.22;;;18.20;94.40;;;;;;4925204;29;20238;-84
2022/04/29 10:49:18;;;;;;;6.75;3.05;;;18.30;89.60;;;;;;4917953;29;20189;-82
2022/04/29 10:51:50;;;;;;;8.52;3.55;;;18.20;91.60;;;;;;4916494;29;20686;-80
2022/04/29 10:54:36;;;;;;;8.85;3.58;;;18.40;90.40;;;;;;4936889;29;20188;-82
2022/04/29 10:57:04;;;;;;;5.93;3.00;;;18.40;92.80;;;;;;4937004;29;20188;-88
2022/04/29 10:59:53;;;;;;;10.88;3.78;;;18.40;90.90;;;;;;4936761;29;20229;-81
2022/04/29 11:02:32;;;;;;;9.77;3.38;;;18.50;87.00;;;;;;4936901;29;20174;-82
2022/04/29 11:05:00;;;;;;;11.23;3.25;;;18.40;91.80;;;;;;4928834;29;20222;-81
2022/04/29 11:07:34;;;;;;;9.35;4.03;;;18.50;91.10;;;;;;4917472;29;20170;-85
2022/04/29 11:10:00;;;;;;;8.68;3.13;;;18.60;90.00;;;;;;4915656;29;20589;-83
2022/04/29 11:12:38;;;;;;;7.47;3.88;;;18.60;86.30;;;;;;4917916;29;20182;-84
2022/04/29 11:15:18;;;;;;;6.93;2.80;;;18.50;90.80;;;;;;4917672;29;20601;-83
2022/04/29 11:17:44;;;;;;;7.28;3.38;;;18.60;89.20;;;;;;4916266;29;20218;-84
2022/04/29 11:20:18;;;;;;;8.63;3.90;;;18.70;88.00;;;;;;4917855;29;20171;-84
2022/04/29 11:26:00;;;;;;;11.20;4.05;;;18.70;89.50;;;;;;4922836;29;20232;-82
2022/04/29 11:28:27;;;;;;;7.90;4.18;;;18.80;90.30;;;;;;4917446;29;20179;-82
2022/04/29 11:31:03;;;;;;;7.75;3.30;;;18.70;90.60;;;;;;4917299;29;20641;-81
2022/04/29 11:33:29;;;;;;;7.70;3.60;;;18.80;90.70;;;;;;4916918;29;20182;-84
2022/04/29 11:36:06;;;;;;;11.52;3.67;;;18.90;82.60;;;;;;4917218;29;20191;-81
2022/04/29 11:38:43;;;;;;;7.05;3.55;;;18.70;90.00;;;;;;4916083;29;20511;-82
2022/04/29 11:41:15;;;;;;;6.15;3.63;;;18.80;87.60;;;;;;4916731;29;20174;-83
2022/04/29 11:43:40;;;;;;;9.77;3.70;;;19.00;89.20;;;;;;4917547;29;20177;-81
2022/04/29 11:46:07;;;;;;;7.47;3.35;;;19.10;88.70;;;;;;4918353;29;20183;-83
2022/04/29 11:48:34;;;;;;;7.03;3.75;;;19.20;84.20;;;;;;4923412;29;20555;-81
2022/04/29 11:51:01;;;;;;;7.95;3.75;;;19.40;85.50;;;;;;4940169;29;20217;-82
2022/04/29 11:53:26;;;;;;;8.38;3.60;;;19.30;87.10;;;;;;4939960;29;20521;-83
2022/04/29 11:55:53;;;;;;;7.72;3.95;;;19.30;83.50;;;;;;4938742;29;20700;-83
2022/04/29 11:58:19;;;;;;;10.13;3.70;;;19.30;81.50;;;;;;4937964;29;20186;-81
2022/04/29 12:00:54;;;;;;;7.68;3.85;;;19.20;86.10;;;;;;4933182;29;20277;-81
2022/04/29 12:03:21;;;;;;;7.00;3.70;;;19.30;87.00;;;;;;4920825;29;20179;-81
2022/04/29 12:05:47;;;;;;;12.32;3.40;;;19.30;81.40;;;;;;4920482;29;20325;-82
2022/04/29 12:08:13;;;;;;;10.85;4.05;;;19.30;82.90;;;;;;4919366;29;20322;-81
2022/04/29 12:10:45;;;;;;;6.55;3.70;;;19.40;84.90;;;;;;4929202;29;20573;-81
2022/04/29 12:13:11;;;;;;;8.65;3.10;;;19.60;87.60;;;;;;4939157;29;20173;-84
2022/04/29 12:15:42;;;;;;;8.10;2.85;;;19.70;86.70;;;;;;4937724;29;20182;-81
2022/04/29 12:18:10;;;;;;;6.03;3.17;;;19.90;81.90;;;;;;4938809;29;20173;-83
2022/04/29 12:20:39;;;;;;;6.40;2.95;;;19.90;79.90;;;;;;4937867;29;20178;-80
2022/04/29 12:23:09;;;;;;;5.57;2.72;;;19.90;78.90;;;;;;4939191;29;20535;-81
2022/04/29 12:25:42;;;;;;;6.72;2.75;;;19.90;81.90;;;;;;4938660;29;20193;-81
2022/04/29 12:28:22;;;;;;;6.95;3.08;;;20.00;78.20;;;;;;4939226;29;20494;-80
2022/04/29 12:36:49;;;;;;;7.65;3.58;;;20.10;77.10;;;;;;4939006;29;20645;-83
2022/04/29 12:39:18;;;;;;;8.77;3.55;;;20.10;76.20;;;;;;4938975;29;20564;-83
2022/04/29 12:41:55;;;;;;;4.85;3.10;;;20.20;75.70;;;;;;4937583;29;20273;-83
2022/04/29 12:47:23;;;;;;;6.85;3.33;;;20.60;76.40;;;;;;4938975;29;20196;-81
2022/04/29 12:49:49;;;;;;;9.15;3.22;;;20.70;76.30;;;;;;4938814;29;20201;-82
2022/04/29 12:52:15;;;;;;;6.38;2.78;;;20.60;72.30;;;;;;4936823;29;20514;-83
2022/04/29 12:54:40;;;;;;;7.22;2.97;;;20.70;74.10;;;;;;4937581;29;20689;-82
2022/04/29 12:57:06;;;;;;;7.72;3.13;;;20.40;68.90;;;;;;4936505;29;20285;-81
2022/04/29 12:59:36;;;;;;;7.85;2.72;;;20.30;70.10;;;;;;4938174;29;20180;-82
2022/04/29 13:02:06;;;;;;;6.72;3.05;;;20.20;77.00;;;;;;4938522;29;20241;-81
2022/04/29 13:04:32;;;;;;;5.60;3.10;;;20.20;75.80;;;;;;4938100;29;20186;-81
2022/04/29 13:06:59;;;;;;;6.72;3.00;;;20.30;72.40;;;;;;4936980;29;20695;-83
2022/04/29 13:09:25;;;;;;;10.25;3.10;;;20.40;72.00;;;;;;4936695;29;20240;-83
2022/04/29 13:11:54;;;;;;;6.43;2.95;;;20.30;69.50;;;;;;4938098;29;20542;-81
2022/04/29 13:14:19;;;;;;;5.65;2.55;;;20.20;69.00;;;;;;4938466;29;20249;-82
2022/04/29 13:16:47;;;;;;;7.55;3.03;;;20.30;69.60;;;;;;4937971;29;20214;-82
2022/04/29 13:19:13;;;;;;;6.10;2.92;;;20.30;70.30;;;;;;4938245;29;20613;-82
2022/04/29 13:21:38;;;;;;;5.72;2.78;;;20.30;70.10;;;;;;4937060;29;20196;-83
2022/04/29 13:24:05;;;;;;;8.93;3.28;;;20.30;69.40;;;;;;4936874;29;20182;-82
2022/04/29 13:26:32;;;;;;;6.90;3.15;;;20.30;74.40;;;;;;4936760;29;20527;-82
2022/04/29 13:28:57;;;;;;;6.07;2.83;;;20.20;71.60;;;;;;4935042;29;20564;-82
2022/04/29 13:31:23;;;;;;;4.82;2.70;;;20.20;72.10;;;;;;4937246;29;20663;-82
2022/04/29 13:33:49;;;;;;;4.40;2.90;;;20.00;69.90;;;;;;4936805;29;20519;-81
2022/04/29 13:36:15;;;;;;;7.65;3.47;;;19.90;69.80;;;;;;4936020;29;20623;-81
2022/04/29 13:38:42;;;;;;;6.05;3.08;;;19.90;70.10;;;;;;4934403;29;20192;-81
2022/04/29 13:41:08;;;;;;;7.72;3.38;;;19.90;71.50;;;;;;4919206;29;20277;-81